Model City, NY (14107)

7:02 PM EDT on September 26, 2016 (GMT -0400)
Hillview Court | | Change Station

Elev 406 ft 43.17 °N, 79.02 °W | Updated 4 minutes ago

Mostly Cloudy
Mostly Cloudy
63.5 °F
Feels Like 63.5 °F
N
1.2
Wind Variable Wind from SSW
Gusts 3.7 mph

Today
High -- | Low -- °F
--% Chance of Precip.
Yesterday
High -- | Low -- °F
Precip. -- in
Pressure 29.87 in
Visibility 10.0 miles
Clouds Few 2000 ft
Scattered Clouds 5000 ft
Mostly Cloudy 6000 ft
Dew Point 57 °F
Humidity 80%
Rainfall Not available.
Snow Depth Not available.
7:08 AM 7:05 PM
Waning Crescent, 16% visible
METAR KIAG 262253Z 21006KT 10SM FEW020 SCT050 BKN060 17/14 A2986 RMK AO2 RAE37 SLP113 P0000 T01720144
Pressure 29.87 in
Visibility 10.0 miles
Clouds Few 2000 ft
Scattered Clouds 5000 ft
Mostly Cloudy 6000 ft
Dew Point 57 °F
Humidity 80%
Rainfall Not available.
Snow Depth Not available.
7:08 AM 7:05 PM
Waning Crescent, 16% visible
METAR KIAG 262253Z 21006KT 10SM FEW020 SCT050 BKN060 17/14 A2986 RMK AO2 RAE37 SLP113 P0000 T01720144

10-Day Weather Forecast

Almanac

Astronomy

Sep. 26, 2016 Rise Set
Actual Time
Civil Twilight
Nautical Twilight
Astronomical Twilight
Moon
Length of Visible Light
Length of Day
Tomorrow will be .
, % of the Moon is Illuminated

Today's Extremes

State Highs State Lows

Community

WunderPhotos

Upload Photos

1,941,983 photos uploaded!

WunderBlog® & News

Nearby

Air Quality

  Air Quality AQ Index Pollutant
Not available.

Snow Depth

Station Depth Elevation

Earthquake Activity

City Distance Mag. Time & Date
Minimum magnitude displayed is 2.5.

Coastal Water Temperatures

Place Temperature

Stations

Nearby Weather Stations

Station Location Temp. Windchill Dew Point Humidity Wind Precip. Elev Updated Type
                   

Watches & Warnings

There are currently no watches in effect.